EST,Max TemperatureF,Mean TemperatureF,Min TemperatureF,Max Dew PointF,MeanDew PointF,Min DewpointF,Max Humidity, Mean Humidity, Min Humidity, Max Sea Level PressureIn, Mean Sea Level PressureIn, Min Sea Level PressureIn, Max VisibilityMiles, Mean VisibilityMiles, Min VisibilityMiles, Max Wind SpeedMPH, Mean Wind SpeedMPH, Max Gust SpeedMPH,PrecipitationIn, CloudCover, Events, WindDirDegrees
2013-12-1,77,69,60,63,60,57,100,88,64,30.18,30.09,29.99,10,7,1,13,5,35,0.00,4,,19
2013-12-2,70,64,58,61,59,57,100,85,66,29.99,29.93,29.86,10,6,0,7,2,10,0.00,3,,347
2013-12-3,77,68,59,66,63,57,93,80,64,29.98,29.93,29.89,10,10,10,17,7,22,0.00,4,,156
2013-12-4,82,72,62,67,65,62,100,82,62,30.08,30.02,29.96,10,10,10,16,6,20,0.00,2,,154
2013-12-5,83,74,64,67,65,62,100,82,51,30.16,30.11,30.07,10,10,9,13,5,17,0.00,0,,138
2013-12-6,84,75,65,70,67,64,100,84,58,30.17,30.12,30.07,10,10,6,20,7,25,0.00,2,,151
2013-12-7,82,73,64,69,66,63,100,82,58,30.23,30.18,30.14,10,10,5,9,4,13,0.00,1,,139
2013-12-8,86,75,64,68,66,63,100,80,51,30.21,30.15,30.09,10,10,7,20,6,24,0.00,1,,111
2013-12-9,83,74,64,70,67,63,93,82,62,30.17,30.13,30.09,10,10,9,17,7,23,0.00,1,,154
2013-12-10,81,70,59,70,66,60,100,89,69,30.16,30.13,30.09,10,8,1,13,3,30,0.01,1,,185
2013-12-11,84,75,65,68,65,60,97,82,55,30.23,30.17,30.14,10,9,1,15,8,20,0.00,2,,34
2013-12-12,75,65,55,65,57,28,100,77,33,30.29,30.23,30.17,10,7,1,16,9,21,0.00,5,,33
2013-12-13,78,65,51,58,50,33,78,61,38,30.25,30.17,30.09,10,10,10,17,10,24,0.00,0,,67
2013-12-14,83,73,63,72,67,58,93,80,63,30.09,30.01,29.95,10,10,10,25,14,33,0.00,2,,156
2013-12-15,75,68,61,73,65,56,100,82,60,30.12,29.99,29.91,10,8,1,16,9,22,0.02,6,,303
2013-12-16,66,59,51,56,47,41,86,69,44,30.22,30.16,30.10,10,10,10,14,7,17,0.00,2,,16
2013-12-17,73,60,47,52,47,41,86,66,49,30.25,30.19,30.14,10,10,10,12,7,16,0.00,0,,23
2013-12-18,74,59,44,50,44,36,93,62,27,30.27,30.23,30.19,10,10,10,15,6,22,0.00,0,,40
2013-12-19,79,63,47,55,49,43,86,67,35,30.26,30.21,30.14,10,10,10,14,7,17,0.00,0,,78
2013-12-20,85,72,58,66,61,54,87,73,51,30.18,30.13,30.08,10,10,10,18,9,23,0.00,2,,105
2013-12-21,87,78,68,69,67,64,90,77,51,30.12,30.07,30.01,10,10,10,23,11,30,0.00,0,,139
2013-12-22,84,77,69,70,69,67,97,79,58,30.13,30.09,30.05,10,10,10,25,12,32,0.00,1,,157
2013-12-23,83,75,66,72,70,64,100,86,69,30.16,30.13,30.09,10,9,3,21,10,26,0.00,3,,162
2013-12-24,74,63,52,72,56,33,93,72,36,30.25,30.17,30.12,10,10,7,21,11,26,T,4,,345
2013-12-25,78,64,50,58,49,38,68,61,48,30.22,30.16,30.10,10,10,10,17,10,22,0.00,1,,57
2013-12-26,81,71,61,61,58,54,78,68,45,30.19,30.14,30.07,10,10,10,13,7,21,T,5,,55
2013-12-27,80,72,63,65,61,58,87,77,58,30.22,30.16,30.11,10,10,10,15,11,22,0.00,3,,62
2013-12-28,83,74,65,68,66,62,93,81,62,30.19,30.10,29.99,10,10,7,21,11,25,0.00,4,,100
2013-12-29,77,71,64,72,68,61,93,89,81,30.01,29.95,29.89,10,9,4,23,11,30,0.18,6,Rain,207
2013-12-30,69,66,62,61,59,57,93,83,68,30.19,30.10,30.01,10,10,8,13,5,16,0.00,5,,24
2013-12-31,68,64,60,58,51,48,90,64,49,30.28,30.22,30.15,10,10,10,15,8,18,0.00,4,,45